createdAt,value
2023-01-10T00:00:55.504Z,8.67
2023-01-10T00:03:23.909Z,10.27
2023-01-10T00:05:53.952Z,11.63
2023-01-10T00:08:22.333Z,4.43
2023-01-10T00:10:50.740Z,7.77
2023-01-10T00:13:24.832Z,13.80
2023-01-10T00:15:53.558Z,3.27
2023-01-10T00:18:22.292Z,10.87
2023-01-10T00:20:50.858Z,5.10
2023-01-10T00:23:24.426Z,8.53
2023-01-10T00:25:52.848Z,6.20
2023-01-10T00:28:21.232Z,8.63
2023-01-10T00:30:54.995Z,13.13
2023-01-10T00:33:23.624Z,13.10
2023-01-10T00:35:52.032Z,7.50
2023-01-10T00:38:21.804Z,5.27
2023-01-10T00:40:50.230Z,10.00
2023-01-10T00:43:50.541Z,13.73
2023-01-10T00:46:18.923Z,7.07
2023-01-10T00:48:47.355Z,8.50
2023-01-10T00:51:18.501Z,17.57
2023-01-10T00:53:48.247Z,3.60
2023-01-10T00:56:16.878Z,9.53
2023-01-10T00:58:45.286Z,6.53
2023-01-10T01:01:13.717Z,14.03
2023-01-10T01:03:42.086Z,9.50
2023-01-10T01:06:10.607Z,7.67
2023-01-10T01:08:38.997Z,9.83
2023-01-10T01:11:09.916Z,13.87
2023-01-10T01:13:38.317Z,9.97
2023-01-10T01:16:06.972Z,9.17
2023-01-10T01:18:35.430Z,9.60
2023-01-10T01:21:05.678Z,8.93
2023-01-10T01:23:35.617Z,12.67
2023-01-10T01:26:04.112Z,11.87
2023-01-10T01:28:33.890Z,4.77
2023-01-10T01:31:08.330Z,12.53
2023-01-10T01:33:37.354Z,13.03
2023-01-10T01:36:09.674Z,21.80
2023-01-10T01:38:38.205Z,8.87
2023-01-10T01:41:27.123Z,10.70
2023-01-10T01:44:03.424Z,10.33
2023-01-10T01:46:32.899Z,15.17
2023-01-10T01:49:01.396Z,15.80
2023-01-10T01:51:31.106Z,15.27
2023-01-10T01:54:01.762Z,18.67
2023-01-10T01:56:32.007Z,19.27
2023-01-10T01:59:03.966Z,17.03
2023-01-10T02:01:33.113Z,8.30
2023-01-10T02:04:03.285Z,6.63
2023-01-10T02:06:31.834Z,11.50
2023-01-10T02:09:03.839Z,7.00
2023-01-10T02:11:32.432Z,8.43
2023-01-10T02:14:03.658Z,12.90
2023-01-10T02:16:32.026Z,18.23
2023-01-10T02:19:00.532Z,12.07
2023-01-10T02:21:52.587Z,17.70
2023-01-10T02:24:39.639Z,11.10
2023-01-10T02:27:21.983Z,9.57
2023-01-10T02:30:19.368Z,4.40
2023-01-10T02:33:04.300Z,15.43
2023-01-10T02:35:47.973Z,10.90
2023-01-10T02:38:22.772Z,13.33
2023-01-10T02:40:53.891Z,17.77
2023-01-10T02:43:24.553Z,10.70
2023-01-10T02:45:57.717Z,15.00
2023-01-10T02:48:27.476Z,13.70
2023-01-10T02:50:58.594Z,16.13
2023-01-10T02:53:28.836Z,6.20
2023-01-10T02:56:20.222Z,5.33
2023-01-10T02:58:55.853Z,14.00
2023-01-10T03:01:29.523Z,11.73
2023-01-10T03:06:45.453Z,8.37
2023-01-10T03:09:18.222Z,11.00
2023-01-10T03:11:48.098Z,13.97
2023-01-10T03:14:19.144Z,14.83
2023-01-10T03:16:49.472Z,17.17
2023-01-10T03:19:19.584Z,10.57
2023-01-10T03:21:50.358Z,5.03
2023-01-10T03:24:20.460Z,9.70
2023-01-10T03:26:51.143Z,12.00
2023-01-10T03:29:21.245Z,13.43
2023-01-10T03:31:53.695Z,11.53
2023-01-10T03:34:22.783Z,6.60
2023-01-10T03:36:55.240Z,12.13
2023-01-10T03:39:25.903Z,19.50
2023-01-10T03:41:56.956Z,13.57
2023-01-10T03:44:46.569Z,7.87
2023-01-10T03:47:17.865Z,15.87
2023-01-10T03:49:48.068Z,6.53
2023-01-10T03:52:19.377Z,14.53
2023-01-10T03:54:48.629Z,12.43
2023-01-10T03:57:18.348Z,14.27
2023-01-10T03:59:46.885Z,15.93
2023-01-10T04:02:15.278Z,15.00
2023-01-10T04:04:43.638Z,12.03
2023-01-10T04:07:11.964Z,4.70
2023-01-10T04:09:41.678Z,15.67
2023-01-10T04:12:10.142Z,15.80
2023-01-10T04:14:38.529Z,12.97
2023-01-10T04:17:07.103Z,5.07
2023-01-10T04:19:35.548Z,10.53
2023-01-10T04:22:05.717Z,16.60
2023-01-10T04:24:34.151Z,14.87
2023-01-10T04:27:03.858Z,13.90
2023-01-10T04:29:32.244Z,5.30
2023-01-10T04:32:01.141Z,11.03
2023-01-10T04:34:29.584Z,7.37
2023-01-10T04:36:57.928Z,6.00
2023-01-10T04:39:26.338Z,15.47
2023-01-10T04:41:54.648Z,18.47
2023-01-10T04:44:24.398Z,10.43
2023-01-10T04:46:52.735Z,6.67
2023-01-10T04:49:21.109Z,22.53
2023-01-10T04:51:49.528Z,4.07
2023-01-10T04:54:21.159Z,9.53
2023-01-10T04:56:49.547Z,12.43
2023-01-10T04:59:17.914Z,3.97
2023-01-10T05:01:47.809Z,1.87
2023-01-10T05:04:16.227Z,14.90
2023-01-10T05:06:44.630Z,9.53
2023-01-10T05:09:13.047Z,10.83
2023-01-10T05:11:41.377Z,10.77
2023-01-10T05:14:09.691Z,5.77
2023-01-10T05:16:38.061Z,8.37
2023-01-10T05:19:07.845Z,7.47
2023-01-10T05:21:36.145Z,7.33
2023-01-10T05:24:04.483Z,3.93
2023-01-10T05:26:32.899Z,8.20
2023-01-10T05:29:01.219Z,14.33
2023-01-10T05:31:29.623Z,1.50
2023-01-10T05:33:58.039Z,9.83
2023-01-10T05:36:27.765Z,3.20
2023-01-10T05:38:56.102Z,7.80
2023-01-10T05:41:24.608Z,5.30
2023-01-10T05:43:54.421Z,5.27
2023-01-10T05:46:22.838Z,4.37
2023-01-10T05:48:51.156Z,7.20
2023-01-10T05:51:19.480Z,2.53
2023-01-10T05:53:50.368Z,7.23
2023-01-10T05:56:18.818Z,10.67
2023-01-10T05:58:49.382Z,14.27
2023-01-10T06:01:19.769Z,3.23
2023-01-10T06:03:48.394Z,2.50
2023-01-10T06:06:16.753Z,2.80
2023-01-10T06:08:45.115Z,11.63
2023-01-10T06:11:14.843Z,9.90
2023-01-10T06:13:43.198Z,5.57
2023-01-10T06:16:11.624Z,9.57
2023-01-10T06:18:40.109Z,8.37
2023-01-10T06:21:08.481Z,11.30
2023-01-10T06:23:36.897Z,8.87
2023-01-10T06:26:05.336Z,8.07
2023-01-10T06:28:35.089Z,14.03
2023-01-10T06:31:03.528Z,3.60
2023-01-10T06:33:31.936Z,4.13
2023-01-10T06:36:00.286Z,10.23
2023-01-10T06:38:28.646Z,7.13
2023-01-10T06:40:57.008Z,8.83
2023-01-10T06:43:26.048Z,4.00
2023-01-10T06:45:55.978Z,22.67
2023-01-10T06:48:24.323Z,2.47
2023-01-10T06:50:52.606Z,6.87
2023-01-10T06:53:20.885Z,5.53
2023-01-10T06:55:50.594Z,13.93
2023-01-10T06:58:18.944Z,2.90
2023-01-10T07:00:47.397Z,3.57
2023-01-10T07:03:17.182Z,4.13
2023-01-10T07:05:45.559Z,0.83
2023-01-10T07:08:14.010Z,2.70
2023-01-10T07:10:42.637Z,1.60
2023-01-10T07:13:11.357Z,8.57
2023-01-10T07:15:39.758Z,10.30
2023-01-10T07:18:09.422Z,4.90
2023-01-10T07:20:39.976Z,1.87
2023-01-10T07:23:08.324Z,8.40
2023-01-10T07:25:36.671Z,4.90
2023-01-10T07:28:06.490Z,3.33
2023-01-10T07:30:34.824Z,2.93
2023-01-10T07:33:03.995Z,9.73
2023-01-10T07:35:32.463Z,9.23
2023-01-10T07:38:03.276Z,17.27
2023-01-10T07:40:31.865Z,9.93
2023-01-10T07:43:01.040Z,14.70
2023-01-10T07:45:29.966Z,8.97
2023-01-10T07:47:59.043Z,5.50
2023-01-10T07:50:27.525Z,12.10
2023-01-10T07:52:56.192Z,13.73
2023-01-10T07:55:26.165Z,14.77
2023-01-10T07:57:54.896Z,3.93
2023-01-10T08:00:23.778Z,5.90
2023-01-10T08:02:54.827Z,8.23
2023-01-10T08:05:23.470Z,8.47
2023-01-10T08:07:52.407Z,16.67
2023-01-10T08:10:20.819Z,6.70
2023-01-10T08:12:51.331Z,7.53
2023-01-10T08:15:19.795Z,8.37
2023-01-10T08:17:48.207Z,10.67
2023-01-10T08:20:16.813Z,17.97
2023-01-10T08:22:45.189Z,9.57
2023-01-10T08:25:13.868Z,8.23
2023-01-10T08:27:42.341Z,21.97
2023-01-10T08:30:12.984Z,14.67
2023-01-10T08:32:41.467Z,10.33
2023-01-10T08:35:10.255Z,13.13
2023-01-10T08:37:38.865Z,22.83
2023-01-10T08:40:12.471Z,28.03
2023-01-10T08:42:40.999Z,6.40
2023-01-10T08:45:10.105Z,10.53
2023-01-10T08:47:40.008Z,6.00
2023-01-10T08:50:14.484Z,9.47
2023-01-10T08:52:42.997Z,2.40
2023-01-10T08:55:11.998Z,10.60
2023-01-10T08:57:40.400Z,10.33
2023-01-10T09:00:09.343Z,11.13
2023-01-10T09:02:37.751Z,3.60
2023-01-10T09:05:18.628Z,10.87
2023-01-10T09:07:54.981Z,9.20
2023-01-10T09:10:37.571Z,22.30
2023-01-10T09:13:06.083Z,23.17
2023-01-10T09:15:35.851Z,21.20
2023-01-10T09:18:05.964Z,16.10
2023-01-10T09:20:36.767Z,10.10
2023-01-10T09:23:09.461Z,10.27
2023-01-10T09:25:37.930Z,18.13
2023-01-10T09:28:07.042Z,24.47
2023-01-10T09:30:35.430Z,14.60
2023-01-10T09:33:03.906Z,19.43
2023-01-10T09:35:32.938Z,22.43
2023-01-10T09:38:03.092Z,15.40
2023-01-10T09:40:35.549Z,17.20
2023-01-10T09:43:07.491Z,16.00
2023-01-10T09:45:39.637Z,13.63
2023-01-10T09:48:09.189Z,18.60
2023-01-10T09:50:45.398Z,14.90
2023-01-10T09:53:17.635Z,21.30
2023-01-10T09:55:47.900Z,20.87
2023-01-10T09:58:17.209Z,9.80
2023-01-10T10:00:46.989Z,27.93
2023-01-10T10:03:27.905Z,11.13
2023-01-10T10:06:10.611Z,13.60
2023-01-10T10:08:41.857Z,17.43
2023-01-10T10:11:17.665Z,19.67
2023-01-10T10:13:50.144Z,12.80
2023-01-10T10:16:23.430Z,19.07
2023-01-10T10:18:55.974Z,18.90
2023-01-10T10:21:28.601Z,23.40
2023-01-10T10:24:12.156Z,17.37
2023-01-10T10:26:45.967Z,18.97
2023-01-10T10:29:25.344Z,19.97
2023-01-10T10:32:09.783Z,21.67
2023-01-10T10:34:41.975Z,17.73
2023-01-10T10:37:13.283Z,17.47
2023-01-10T10:39:45.097Z,19.80
2023-01-10T10:42:16.455Z,22.97
2023-01-10T10:44:47.062Z,22.60
2023-01-10T10:47:16.796Z,14.60
2023-01-10T10:49:47.019Z,21.63
2023-01-10T10:52:24.161Z,15.37
2023-01-10T10:54:53.103Z,25.80
2023-01-10T10:57:23.751Z,17.33
2023-01-10T10:59:52.681Z,15.20
2023-01-10T11:02:23.586Z,18.37
2023-01-10T11:04:57.020Z,19.93
2023-01-10T11:07:26.984Z,19.67
2023-01-10T11:10:00.530Z,23.47
2023-01-10T11:12:35.266Z,19.00
2023-01-10T11:15:04.687Z,20.87
2023-01-10T11:17:40.887Z,11.63
2023-01-10T11:20:15.725Z,34.03
2023-01-10T11:22:48.302Z,20.43
2023-01-10T11:25:17.513Z,22.13
2023-01-10T11:27:49.541Z,11.97
2023-01-10T11:30:20.234Z,23.53
2023-01-10T11:32:51.551Z,21.47
2023-01-10T11:35:22.555Z,19.37
2023-01-10T11:38:00.781Z,17.20
2023-01-10T11:40:30.872Z,18.50
2023-01-10T11:43:01.766Z,16.70
2023-01-10T11:45:35.251Z,21.50
2023-01-10T11:48:08.835Z,18.83
2023-01-10T11:50:39.042Z,22.43
2023-01-10T11:53:09.845Z,20.77
2023-01-10T11:55:39.293Z,24.40
2023-01-10T11:58:10.226Z,15.67
2023-01-10T12:00:41.159Z,19.47
2023-01-10T12:03:24.009Z,15.60
2023-01-10T12:05:53.819Z,16.77
2023-01-10T12:08:27.086Z,3.83
2023-01-10T12:11:01.792Z,17.80
2023-01-10T12:13:32.428Z,19.57
2023-01-10T12:16:16.768Z,11.50
2023-01-10T12:18:45.525Z,21.47
2023-01-10T12:21:18.059Z,20.27
2023-01-10T12:23:51.965Z,20.37
2023-01-10T12:26:35.277Z,15.67
2023-01-10T12:29:09.265Z,17.10
2023-01-10T12:31:38.832Z,20.43
2023-01-10T12:34:09.517Z,17.90
2023-01-10T12:36:44.692Z,21.97
2023-01-10T12:39:21.227Z,19.57
2023-01-10T12:42:11.156Z,13.63
2023-01-10T12:44:42.341Z,18.47
2023-01-10T12:47:19.913Z,20.30
2023-01-10T12:49:51.185Z,15.90
2023-01-10T12:52:26.442Z,12.30
2023-01-10T12:54:54.952Z,24.53
2023-01-10T12:57:26.096Z,22.00
2023-01-10T12:59:56.905Z,21.33
2023-01-10T13:02:27.990Z,12.83
2023-01-10T13:04:59.228Z,16.40
2023-01-10T13:07:29.485Z,19.50
2023-01-10T13:09:59.669Z,15.80
2023-01-10T13:12:35.427Z,20.90
2023-01-10T13:15:08.421Z,11.23
2023-01-10T13:17:42.884Z,16.50
2023-01-10T13:20:20.609Z,14.40
2023-01-10T13:22:51.494Z,20.83
2023-01-10T13:25:22.100Z,18.90
2023-01-10T13:27:57.260Z,17.73
2023-01-10T13:30:29.470Z,25.67
2023-01-10T13:33:01.498Z,22.37
2023-01-10T13:35:30.165Z,22.73
2023-01-10T13:37:58.773Z,15.33
2023-01-10T13:40:28.446Z,18.20
2023-01-10T13:43:20.707Z,16.60
2023-01-10T13:46:10.684Z,16.47
2023-01-10T13:48:39.416Z,16.23
2023-01-10T13:51:09.447Z,16.93
2023-01-10T13:53:45.934Z,19.17
2023-01-10T13:56:30.887Z,17.77
2023-01-10T13:59:18.415Z,12.60
2023-01-10T14:02:09.635Z,16.80
2023-01-10T14:04:39.498Z,15.10
2023-01-10T14:07:15.247Z,17.23
2023-01-10T14:09:46.014Z,11.00
2023-01-10T14:12:27.273Z,17.07
2023-01-10T14:15:07.418Z,16.27
2023-01-10T14:17:40.856Z,24.67
2023-01-10T14:20:24.869Z,22.10
2023-01-10T14:23:03.854Z,22.20
2023-01-10T14:25:34.063Z,23.23
2023-01-10T14:28:05.994Z,21.33
2023-01-10T14:30:36.736Z,21.23
2023-01-10T14:33:13.316Z,25.70
2023-01-10T14:35:45.161Z,18.37
2023-01-10T14:38:18.123Z,22.70
2023-01-10T14:40:50.886Z,27.33
2023-01-10T14:43:24.896Z,19.57
2023-01-10T14:45:58.136Z,16.87
2023-01-10T14:48:29.450Z,22.60
2023-01-10T14:51:21.755Z,21.00
2023-01-10T14:53:57.223Z,24.00
2023-01-10T14:56:26.812Z,21.33
2023-01-10T14:58:55.644Z,14.17
2023-01-10T15:01:25.729Z,18.87
2023-01-10T15:03:57.088Z,19.13
2023-01-10T15:06:27.743Z,29.67
2023-01-10T15:09:00.538Z,24.20
2023-01-10T15:11:30.178Z,15.33
2023-01-10T15:14:01.160Z,16.13
2023-01-10T15:16:30.031Z,18.80
2023-01-10T15:19:00.119Z,17.30
2023-01-10T15:21:29.060Z,25.50
2023-01-10T15:23:59.598Z,17.40
2023-01-10T15:26:29.586Z,19.40
2023-01-10T15:29:06.679Z,17.87
2023-01-10T15:31:37.680Z,17.87
2023-01-10T15:34:12.953Z,22.17
2023-01-10T15:36:45.147Z,17.97
2023-01-10T15:39:19.278Z,17.77
2023-01-10T15:41:47.869Z,19.07
2023-01-10T15:44:31.457Z,18.47
2023-01-10T15:47:03.104Z,14.43
2023-01-10T15:49:33.075Z,21.53
2023-01-10T15:52:01.438Z,14.20
2023-01-10T15:54:31.322Z,13.03
2023-01-10T15:57:04.507Z,15.77
2023-01-10T15:59:34.092Z,16.03
2023-01-10T16:02:06.451Z,13.93
2023-01-10T16:04:37.529Z,11.80
2023-01-10T16:07:10.445Z,10.80
2023-01-10T16:09:39.693Z,13.90
2023-01-10T16:12:25.781Z,11.70
2023-01-10T16:14:54.289Z,15.97
2023-01-10T16:17:22.864Z,12.17
2023-01-10T16:20:00.146Z,13.97
2023-01-10T16:22:29.173Z,8.53
2023-01-10T16:24:58.333Z,12.80
2023-01-10T16:27:28.745Z,7.37
2023-01-10T16:29:57.378Z,13.13
2023-01-10T16:32:25.971Z,9.77
2023-01-10T16:34:55.778Z,10.53
2023-01-10T16:37:24.942Z,12.97
2023-01-10T16:39:55.258Z,11.47
2023-01-10T16:42:41.395Z,10.33
2023-01-10T16:45:10.346Z,8.43
2023-01-10T16:47:38.724Z,8.87
2023-01-10T16:50:09.166Z,7.97
2023-01-10T16:52:38.820Z,10.13
2023-01-10T16:55:13.669Z,9.90
2023-01-10T16:57:44.698Z,9.97
2023-01-10T17:00:13.630Z,8.70
2023-01-10T17:02:42.571Z,9.40
2023-01-10T17:05:13.238Z,9.53
2023-01-10T17:07:42.746Z,9.13
2023-01-10T17:10:11.718Z,9.03
2023-01-10T17:12:42.172Z,7.60
2023-01-10T17:15:13.524Z,6.83
2023-01-10T17:17:44.350Z,8.97
2023-01-10T17:20:16.118Z,8.17
2023-01-10T17:22:44.646Z,9.57
2023-01-10T17:25:17.105Z,9.83
2023-01-10T17:27:45.689Z,9.93
2023-01-10T17:30:15.026Z,12.93
2023-01-10T17:32:43.549Z,13.00
2023-01-10T17:35:11.923Z,11.37
2023-01-10T17:37:42.636Z,14.87
2023-01-10T17:40:12.187Z,13.83
2023-01-10T17:42:40.504Z,12.53
2023-01-10T17:45:09.411Z,18.13
2023-01-10T17:47:37.697Z,14.30
2023-01-10T17:50:06.432Z,16.57
2023-01-10T17:52:34.837Z,18.97
2023-01-10T17:55:06.486Z,18.57
2023-01-10T17:57:38.071Z,20.73
2023-01-10T18:00:06.898Z,23.37
2023-01-10T18:02:35.322Z,22.20
2023-01-10T18:05:03.824Z,22.07
2023-01-10T18:07:32.165Z,23.53
2023-01-10T18:10:00.500Z,25.70
2023-01-10T18:12:30.215Z,24.43
2023-01-10T18:14:58.582Z,27.60
2023-01-10T18:17:26.955Z,26.70
2023-01-10T18:19:55.320Z,26.87
2023-01-10T18:22:41.085Z,27.67
2023-01-10T18:25:09.850Z,30.17
2023-01-10T18:27:39.595Z,16.70
2023-01-10T18:30:08.491Z,23.53
2023-01-10T18:32:36.942Z,20.77
2023-01-10T18:35:05.505Z,27.57
2023-01-10T18:37:34.503Z,21.57
2023-01-10T18:40:04.402Z,26.03
2023-01-10T18:42:32.809Z,21.17
2023-01-10T18:45:02.552Z,24.67
2023-01-10T18:47:30.887Z,22.23
2023-01-10T18:49:59.225Z,25.97
2023-01-10T18:52:27.577Z,19.57
2023-01-10T18:54:56.008Z,30.97
2023-01-10T18:57:24.974Z,19.10
2023-01-10T18:59:53.359Z,30.43
2023-01-10T19:02:23.297Z,30.97
2023-01-10T19:04:52.084Z,20.90
2023-01-10T19:07:20.436Z,23.90
2023-01-10T19:09:50.896Z,28.17
2023-01-10T19:12:19.216Z,24.87
2023-01-10T19:14:47.545Z,29.20
2023-01-10T19:17:17.135Z,26.63
2023-01-10T19:19:46.829Z,25.03
2023-01-10T19:22:15.161Z,25.87
2023-01-10T19:24:43.531Z,25.00
2023-01-10T19:27:11.933Z,28.83
2023-01-10T19:29:40.269Z,22.93
2023-01-10T19:32:08.614Z,24.27
2023-01-10T19:34:37.059Z,23.43
2023-01-10T19:37:06.797Z,19.50
2023-01-10T19:39:36.259Z,23.17
2023-01-10T19:42:04.600Z,16.93
2023-01-10T19:44:32.951Z,26.50
2023-01-10T19:47:01.231Z,17.40
2023-01-10T19:49:35.756Z,24.87
2023-01-10T19:52:04.165Z,22.30
2023-01-10T19:54:33.964Z,13.97
2023-01-10T19:57:03.128Z,24.30
2023-01-10T19:59:32.654Z,21.67
2023-01-10T20:02:01.760Z,19.83
2023-01-10T20:04:30.147Z,20.97
2023-01-10T20:06:58.549Z,25.17
2023-01-10T20:09:27.923Z,13.53
2023-01-10T20:11:57.615Z,18.10
2023-01-10T20:14:26.096Z,20.13
2023-01-10T20:16:54.411Z,19.70
2023-01-10T20:19:23.752Z,18.50
2023-01-10T20:21:52.066Z,17.43
2023-01-10T20:24:22.024Z,15.77
2023-01-10T20:26:51.155Z,17.70
2023-01-10T20:29:20.896Z,16.90
2023-01-10T20:31:52.776Z,19.67
2023-01-10T20:34:22.787Z,19.47
2023-01-10T20:36:54.007Z,22.70
2023-01-10T20:39:22.411Z,21.27
2023-01-10T20:41:51.790Z,21.70
2023-01-10T20:44:21.552Z,22.13
2023-01-10T20:46:50.999Z,22.17
2023-01-10T20:49:19.475Z,25.37
2023-01-10T20:51:48.992Z,24.13
2023-01-10T20:54:17.702Z,25.43
2023-01-10T20:56:46.064Z,20.43
2023-01-10T20:59:14.406Z,21.47
2023-01-10T21:01:44.149Z,24.73
2023-01-10T21:04:12.471Z,20.33
2023-01-10T21:06:40.911Z,15.50
2023-01-10T21:09:09.225Z,25.30
2023-01-10T21:11:52.161Z,20.10
2023-01-10T21:14:25.906Z,14.37
2023-01-10T21:16:55.647Z,20.43
2023-01-10T21:19:23.998Z,19.50
2023-01-10T21:21:52.361Z,18.73
2023-01-10T21:24:22.893Z,19.03
2023-01-10T21:26:51.269Z,20.70
2023-01-10T21:29:19.609Z,20.57
2023-01-10T21:31:48.039Z,20.53
2023-01-10T21:34:17.792Z,19.87
2023-01-10T21:36:46.098Z,12.63
2023-01-10T21:39:14.389Z,18.77
2023-01-10T21:42:02.510Z,17.63
2023-01-10T21:44:30.915Z,16.63
2023-01-10T21:46:59.321Z,17.77
2023-01-10T21:49:29.096Z,18.13
2023-01-10T21:51:57.823Z,15.27
2023-01-10T21:54:26.141Z,17.57
2023-01-10T21:56:54.512Z,21.20
2023-01-10T21:59:22.849Z,20.17
2023-01-10T22:01:51.241Z,17.80
2023-01-10T22:04:19.677Z,19.70
2023-01-10T22:06:50.013Z,13.83
2023-01-10T22:09:18.483Z,16.27
2023-01-10T22:11:46.862Z,16.90
2023-01-10T22:14:15.202Z,16.07
2023-01-10T22:16:43.563Z,9.17
2023-01-10T22:19:13.432Z,14.23
2023-01-10T22:21:41.760Z,6.70
2023-01-10T22:24:11.872Z,9.67
2023-01-10T22:26:40.245Z,11.00
2023-01-10T22:29:08.547Z,7.40
2023-01-10T22:31:36.912Z,10.57
2023-01-10T22:34:05.247Z,10.13
2023-01-10T22:36:33.614Z,7.80
2023-01-10T22:39:01.929Z,9.93
2023-01-10T22:41:31.638Z,8.87
2023-01-10T22:43:59.974Z,7.17
2023-01-10T22:46:28.609Z,9.70
2023-01-10T22:48:56.947Z,9.73
2023-01-10T22:51:26.599Z,8.90
2023-01-10T22:53:55.729Z,7.40
2023-01-10T22:56:25.377Z,11.17
2023-01-10T22:58:55.188Z,7.63
2023-01-10T23:01:24.584Z,6.63
2023-01-10T23:03:53.073Z,8.50
2023-01-10T23:06:21.489Z,7.03
2023-01-10T23:08:50.531Z,4.83
2023-01-10T23:11:20.587Z,6.80
2023-01-10T23:13:49.512Z,6.10
2023-01-10T23:16:21.920Z,9.23
2023-01-10T23:18:50.329Z,9.90
2023-01-10T23:21:19.027Z,4.00
2023-01-10T23:23:47.385Z,7.47
2023-01-10T23:26:16.226Z,6.27
2023-01-10T23:28:46.872Z,11.00
2023-01-10T23:31:16.297Z,9.90
2023-01-10T23:33:46.255Z,5.60
2023-01-10T23:36:15.126Z,6.83
2023-01-10T23:38:43.770Z,7.20
2023-01-10T23:41:12.145Z,7.63
2023-01-10T23:43:40.564Z,7.40
2023-01-10T23:46:09.088Z,4.77
2023-01-10T23:48:37.535Z,6.20
2023-01-10T23:51:07.785Z,6.37
2023-01-10T23:53:36.096Z,5.17
2023-01-10T23:56:07.356Z,7.83
2023-01-10T23:58:35.735Z,14.37
